Аэропорт: Полярный. Удачный

ICAO: UERP

METAR:
2020-10-19 14:30:00
UERP 191430Z 12003MPS 3800 -SN BKN014 OVC100 M09/M10 Q0999 R35/493032 NOSIG RMK QFE705
METAR:
2020-10-19 14:00:00
TAF UERP 191400Z 1915/2015 12004MPS 3000 -SHSN BKN007 BKN015CB OVC100 TEMPO 1915/1924 1000 SHSN VV004 BECMG 1916/1918 VRB01MPS